sensor_id;sensor_type;location;lat;lon;timestamp;temperature;humidity
23783;DHT22;12071;50.850;4.446;2023-02-01T00:01:19;8.00;1.00
23783;DHT22;12071;50.850;4.446;2023-02-01T00:03:44;7.90;1.00
23783;DHT22;12071;50.850;4.446;2023-02-01T00:06:10;7.80;1.00
23783;DHT22;12071;50.850;4.446;2023-02-01T00:08:35;7.70;1.00
23783;DHT22;12071;50.850;4.446;2023-02-01T00:11:10;7.80;1.00
23783;DHT22;12071;50.850;4.446;2023-02-01T00:13:38;7.90;1.00
23783;DHT22;12071;50.850;4.446;2023-02-01T00:16:15;7.90;1.00
23783;DHT22;12071;50.850;4.446;2023-02-01T00:18:45;7.80;1.00
23783;DHT22;12071;50.850;4.446;2023-02-01T00:21:15;7.70;1.00
23783;DHT22;12071;50.850;4.446;2023-02-01T00:23:41;7.90;1.00
23783;DHT22;12071;50.850;4.446;2023-02-01T00:26:11;7.90;1.00
23783;DHT22;12071;50.850;4.446;2023-02-01T00:28:38;7.80;1.00
23783;DHT22;12071;50.850;4.446;2023-02-01T00:31:04;7.90;1.00
23783;DHT22;12071;50.850;4.446;2023-02-01T00:33:31;7.70;1.00
23783;DHT22;12071;50.850;4.446;2023-02-01T00:36:01;7.70;1.00
23783;DHT22;12071;50.850;4.446;2023-02-01T00:38:28;7.70;1.00
23783;DHT22;12071;50.850;4.446;2023-02-01T00:40:56;7.70;1.00
23783;DHT22;12071;50.850;4.446;2023-02-01T00:43:26;7.60;1.00
23783;DHT22;12071;50.850;4.446;2023-02-01T00:45:52;7.70;1.00
23783;DHT22;12071;50.850;4.446;2023-02-01T00:48:18;7.80;1.00
23783;DHT22;12071;50.850;4.446;2023-02-01T00:50:44;7.80;1.00
23783;DHT22;12071;50.850;4.446;2023-02-01T00:53:10;7.80;1.00
23783;DHT22;12071;50.850;4.446;2023-02-01T00:55:36;7.70;1.00
23783;DHT22;12071;50.850;4.446;2023-02-01T00:58:02;7.60;1.00
23783;DHT22;12071;50.850;4.446;2023-02-01T01:00:34;7.60;1.00
23783;DHT22;12071;50.850;4.446;2023-02-01T01:02:59;7.70;1.00
23783;DHT22;12071;50.850;4.446;2023-02-01T01:05:25;7.80;1.00
23783;DHT22;12071;50.850;4.446;2023-02-01T01:07:53;7.70;1.00
23783;DHT22;12071;50.850;4.446;2023-02-01T01:10:19;7.60;1.00
23783;DHT22;12071;50.850;4.446;2023-02-01T01:12:44;7.60;1.00
23783;DHT22;12071;50.850;4.446;2023-02-01T01:15:10;7.60;1.00
23783;DHT22;12071;50.850;4.446;2023-02-01T01:17:36;7.70;1.00
23783;DHT22;12071;50.850;4.446;2023-02-01T01:20:02;7.70;99.90
23783;DHT22;12071;50.850;4.446;2023-02-01T01:22:28;7.60;99.90
23783;DHT22;12071;50.850;4.446;2023-02-01T01:24:53;7.60;99.90
23783;DHT22;12071;50.850;4.446;2023-02-01T01:27:19;7.50;99.90
23783;DHT22;12071;50.850;4.446;2023-02-01T01:29:49;7.50;99.90
23783;DHT22;12071;50.850;4.446;2023-02-01T01:32:14;7.60;99.90
23783;DHT22;12071;50.850;4.446;2023-02-01T01:34:40;7.50;99.90
23783;DHT22;12071;50.850;4.446;2023-02-01T01:37:06;7.50;99.90
23783;DHT22;12071;50.850;4.446;2023-02-01T01:39:31;7.60;99.90
23783;DHT22;12071;50.850;4.446;2023-02-01T01:41:57;7.50;99.90
23783;DHT22;12071;50.850;4.446;2023-02-01T01:47:19;7.60;99.90
23783;DHT22;12071;50.850;4.446;2023-02-01T01:49:45;7.50;99.90
23783;DHT22;12071;50.850;4.446;2023-02-01T01:52:10;7.60;99.90
23783;DHT22;12071;50.850;4.446;2023-02-01T01:54:40;7.60;99.90
23783;DHT22;12071;50.850;4.446;2023-02-01T01:57:14;7.60;99.90
23783;DHT22;12071;50.850;4.446;2023-02-01T01:59:41;7.50;99.90
23783;DHT22;12071;50.850;4.446;2023-02-01T02:02:09;7.60;99.90
23783;DHT22;12071;50.850;4.446;2023-02-01T02:04:35;7.70;29.60
23783;DHT22;12071;50.850;4.446;2023-02-01T02:07:06;7.60;1.00
23783;DHT22;12071;50.850;4.446;2023-02-01T02:09:33;7.60;1.00
23783;DHT22;12071;50.850;4.446;2023-02-01T02:11:59;7.50;1.00
23783;DHT22;12071;50.850;4.446;2023-02-01T02:14:26;7.60;1.00
23783;DHT22;12071;50.850;4.446;2023-02-01T02:17:06;7.50;1.00
23783;DHT22;12071;50.850;4.446;2023-02-01T02:22:45;7.30;1.00
23783;DHT22;12071;50.850;4.446;2023-02-01T02:39:00;7.40;99.90
23783;DHT22;12071;50.850;4.446;2023-02-01T02:47:53;7.40;99.90
23783;DHT22;12071;50.850;4.446;2023-02-01T02:50:23;7.50;99.90
23783;DHT22;12071;50.850;4.446;2023-02-01T02:56:28;7.50;1.00
23783;DHT22;12071;50.850;4.446;2023-02-01T02:59:15;7.40;99.90
23783;DHT22;12071;50.850;4.446;2023-02-01T03:02:01;7.40;99.90
23783;DHT22;12071;50.850;4.446;2023-02-01T03:04:46;7.40;99.90
23783;DHT22;12071;50.850;4.446;2023-02-01T03:13:07;7.30;99.90
23783;DHT22;12071;50.850;4.446;2023-02-01T03:16:00;7.20;99.90
23783;DHT22;12071;50.850;4.446;2023-02-01T03:21:06;7.20;99.90
23783;DHT22;12071;50.850;4.446;2023-02-01T03:23:35;7.20;99.90
23783;DHT22;12071;50.850;4.446;2023-02-01T03:26:04;7.10;99.90
23783;DHT22;12071;50.850;4.446;2023-02-01T03:28:33;7.30;99.90
23783;DHT22;12071;50.850;4.446;2023-02-01T03:31:00;7.20;99.90
23783;DHT22;12071;50.850;4.446;2023-02-01T03:33:27;7.20;99.90
23783;DHT22;12071;50.850;4.446;2023-02-01T03:36:24;7.30;99.90
23783;DHT22;12071;50.850;4.446;2023-02-01T03:39:16;7.20;99.90
23783;DHT22;12071;50.850;4.446;2023-02-01T03:41:50;7.00;99.90
23783;DHT22;12071;50.850;4.446;2023-02-01T03:44:21;6.90;99.90
23783;DHT22;12071;50.850;4.446;2023-02-01T03:49:36;7.00;1.00
23783;DHT22;12071;50.850;4.446;2023-02-01T03:52:05;7.00;99.90
23783;DHT22;12071;50.850;4.446;2023-02-01T03:54:32;6.90;1.00
23783;DHT22;12071;50.850;4.446;2023-02-01T03:57:02;6.90;1.00
23783;DHT22;12071;50.850;4.446;2023-02-01T03:59:30;6.90;1.00
23783;DHT22;12071;50.850;4.446;2023-02-01T04:01:56;6.90;1.00
23783;DHT22;12071;50.850;4.446;2023-02-01T04:04:21;6.90;1.00
23783;DHT22;12071;50.850;4.446;2023-02-01T04:06:50;7.00;1.00
23783;DHT22;12071;50.850;4.446;2023-02-01T04:09:16;7.00;1.00
23783;DHT22;12071;50.850;4.446;2023-02-01T04:11:42;7.00;1.00
23783;DHT22;12071;50.850;4.446;2023-02-01T04:14:08;6.90;1.00
23783;DHT22;12071;50.850;4.446;2023-02-01T04:16:34;6.80;1.00
23783;DHT22;12071;50.850;4.446;2023-02-01T04:19:00;6.80;1.00
23783;DHT22;12071;50.850;4.446;2023-02-01T04:21:26;6.70;1.00
23783;DHT22;12071;50.850;4.446;2023-02-01T04:23:52;6.60;1.00
23783;DHT22;12071;50.850;4.446;2023-02-01T04:26:18;6.70;1.00
23783;DHT22;12071;50.850;4.446;2023-02-01T04:28:45;6.70;1.00
23783;DHT22;12071;50.850;4.446;2023-02-01T04:31:16;6.60;1.00
23783;DHT22;12071;50.850;4.446;2023-02-01T04:33:42;6.60;1.00
23783;DHT22;12071;50.850;4.446;2023-02-01T04:36:08;6.60;1.00
23783;DHT22;12071;50.850;4.446;2023-02-01T04:38:34;6.60;1.00
23783;DHT22;12071;50.850;4.446;2023-02-01T04:40:59;6.50;1.00
23783;DHT22;12071;50.850;4.446;2023-02-01T04:43:25;6.50;1.00
23783;DHT22;12071;50.850;4.446;2023-02-01T04:45:51;6.50;1.00
23783;DHT22;12071;50.850;4.446;2023-02-01T04:48:18;6.40;1.00
23783;DHT22;12071;50.850;4.446;2023-02-01T04:50:46;6.50;1.00
23783;DHT22;12071;50.850;4.446;2023-02-01T04:53:14;6.50;1.00
23783;DHT22;12071;50.850;4.446;2023-02-01T04:55:40;6.60;1.00
23783;DHT22;12071;50.850;4.446;2023-02-01T04:58:06;6.50;1.00
23783;DHT22;12071;50.850;4.446;2023-02-01T05:00:32;6.40;1.00
23783;DHT22;12071;50.850;4.446;2023-02-01T05:02:57;6.30;6.80
23783;DHT22;12071;50.850;4.446;2023-02-01T05:05:23;6.30;33.10
23783;DHT22;12071;50.850;4.446;2023-02-01T05:07:49;6.30;42.00
23783;DHT22;12071;50.850;4.446;2023-02-01T05:10:14;6.30;21.70
23783;DHT22;12071;50.850;4.446;2023-02-01T05:12:43;6.20;23.60
23783;DHT22;12071;50.850;4.446;2023-02-01T05:15:27;6.10;48.40
23783;DHT22;12071;50.850;4.446;2023-02-01T05:17:53;6.10;77.80
23783;DHT22;12071;50.850;4.446;2023-02-01T05:20:18;6.10;90.10
23783;DHT22;12071;50.850;4.446;2023-02-01T05:22:44;6.10;99.90
23783;DHT22;12071;50.850;4.446;2023-02-01T05:25:10;6.00;99.90
23783;DHT22;12071;50.850;4.446;2023-02-01T05:27:36;5.90;99.90
23783;DHT22;12071;50.850;4.446;2023-02-01T05:30:03;5.90;99.90
23783;DHT22;12071;50.850;4.446;2023-02-01T05:32:29;5.90;99.90
23783;DHT22;12071;50.850;4.446;2023-02-01T05:34:55;5.90;99.90
23783;DHT22;12071;50.850;4.446;2023-02-01T05:37:20;6.00;99.90
23783;DHT22;12071;50.850;4.446;2023-02-01T05:39:46;5.90;99.90
23783;DHT22;12071;50.850;4.446;2023-02-01T05:42:11;5.90;99.90
23783;DHT22;12071;50.850;4.446;2023-02-01T05:44:37;5.80;99.90
23783;DHT22;12071;50.850;4.446;2023-02-01T05:47:02;5.80;99.90
23783;DHT22;12071;50.850;4.446;2023-02-01T05:49:28;5.90;99.90
23783;DHT22;12071;50.850;4.446;2023-02-01T05:51:54;5.80;99.90
23783;DHT22;12071;50.850;4.446;2023-02-01T05:54:19;5.70;99.90
23783;DHT22;12071;50.850;4.446;2023-02-01T05:56:45;5.70;99.90
23783;DHT22;12071;50.850;4.446;2023-02-01T05:59:10;5.70;99.90
23783;DHT22;12071;50.850;4.446;2023-02-01T06:01:36;5.60;99.90
23783;DHT22;12071;50.850;4.446;2023-02-01T06:04:01;5.60;99.90
23783;DHT22;12071;50.850;4.446;2023-02-01T06:06:27;5.60;99.90
23783;DHT22;12071;50.850;4.446;2023-02-01T06:08:52;5.60;99.90
23783;DHT22;12071;50.850;4.446;2023-02-01T06:11:18;5.60;99.90
23783;DHT22;12071;50.850;4.446;2023-02-01T06:13:43;5.60;99.90
23783;DHT22;12071;50.850;4.446;2023-02-01T06:16:09;5.60;99.90
23783;DHT22;12071;50.850;4.446;2023-02-01T06:18:35;5.60;99.90
23783;DHT22;12071;50.850;4.446;2023-02-01T06:21:01;5.60;99.90
23783;DHT22;12071;50.850;4.446;2023-02-01T06:23:30;5.60;99.90
23783;DHT22;12071;50.850;4.446;2023-02-01T06:26:04;5.60;99.90
23783;DHT22;12071;50.850;4.446;2023-02-01T06:28:31;5.60;99.90
23783;DHT22;12071;50.850;4.446;2023-02-01T06:30:57;5.70;99.90
23783;DHT22;12071;50.850;4.446;2023-02-01T06:33:24;5.70;99.90
23783;DHT22;12071;50.850;4.446;2023-02-01T06:35:57;5.60;99.90
23783;DHT22;12071;50.850;4.446;2023-02-01T06:38:23;5.60;99.90
23783;DHT22;12071;50.850;4.446;2023-02-01T06:40:53;5.50;99.90
23783;DHT22;12071;50.850;4.446;2023-02-01T06:43:19;5.50;99.90
23783;DHT22;12071;50.850;4.446;2023-02-01T06:45:44;5.50;99.90
23783;DHT22;12071;50.850;4.446;2023-02-01T06:48:10;5.60;99.90
23783;DHT22;12071;50.850;4.446;2023-02-01T06:50:35;5.60;99.90
23783;DHT22;12071;50.850;4.446;2023-02-01T06:53:01;5.50;99.90
23783;DHT22;12071;50.850;4.446;2023-02-01T06:55:27;5.60;99.90
23783;DHT22;12071;50.850;4.446;2023-02-01T06:57:56;5.60;99.90
23783;DHT22;12071;50.850;4.446;2023-02-01T07:00:22;5.60;99.90
23783;DHT22;12071;50.850;4.446;2023-02-01T07:02:48;5.60;99.90
23783;DHT22;12071;50.850;4.446;2023-02-01T07:05:14;5.50;99.90
23783;DHT22;12071;50.850;4.446;2023-02-01T07:07:40;5.60;99.90
23783;DHT22;12071;50.850;4.446;2023-02-01T07:10:05;5.60;99.90
23783;DHT22;12071;50.850;4.446;2023-02-01T07:12:31;5.60;99.90
23783;DHT22;12071;50.850;4.446;2023-02-01T07:14:57;5.60;99.90
23783;DHT22;12071;50.850;4.446;2023-02-01T07:17:23;5.50;99.90
23783;DHT22;12071;50.850;4.446;2023-02-01T07:19:48;5.50;99.90
23783;DHT22;12071;50.850;4.446;2023-02-01T07:22:16;5.40;99.90
23783;DHT22;12071;50.850;4.446;2023-02-01T07:24:42;5.50;99.90
23783;DHT22;12071;50.850;4.446;2023-02-01T07:27:08;5.50;99.90
23783;DHT22;12071;50.850;4.446;2023-02-01T07:29:33;5.40;99.90
23783;DHT22;12071;50.850;4.446;2023-02-01T07:31:59;5.30;99.90
23783;DHT22;12071;50.850;4.446;2023-02-01T07:34:25;5.40;99.90
23783;DHT22;12071;50.850;4.446;2023-02-01T07:36:51;5.60;99.90
23783;DHT22;12071;50.850;4.446;2023-02-01T07:39:17;5.50;99.90
23783;DHT22;12071;50.850;4.446;2023-02-01T07:41:42;5.50;99.90
23783;DHT22;12071;50.850;4.446;2023-02-01T07:44:08;5.50;99.90
23783;DHT22;12071;50.850;4.446;2023-02-01T07:46:33;5.50;99.90
23783;DHT22;12071;50.850;4.446;2023-02-01T07:48:59;5.50;99.90
23783;DHT22;12071;50.850;4.446;2023-02-01T07:51:24;5.50;99.90
23783;DHT22;12071;50.850;4.446;2023-02-01T07:53:50;5.50;99.90
23783;DHT22;12071;50.850;4.446;2023-02-01T07:56:20;5.50;99.90
23783;DHT22;12071;50.850;4.446;2023-02-01T07:58:52;5.60;99.90
23783;DHT22;12071;50.850;4.446;2023-02-01T08:01:21;5.60;99.90
23783;DHT22;12071;50.850;4.446;2023-02-01T08:03:51;5.50;99.90
23783;DHT22;12071;50.850;4.446;2023-02-01T08:06:18;5.50;99.90
23783;DHT22;12071;50.850;4.446;2023-02-01T08:08:45;5.50;99.90
23783;DHT22;12071;50.850;4.446;2023-02-01T08:11:13;5.60;99.90
23783;DHT22;12071;50.850;4.446;2023-02-01T08:13:39;5.50;99.90
23783;DHT22;12071;50.850;4.446;2023-02-01T08:16:07;5.70;99.90
23783;DHT22;12071;50.850;4.446;2023-02-01T08:18:34;5.70;99.90
23783;DHT22;12071;50.850;4.446;2023-02-01T08:21:11;5.70;99.90
23783;DHT22;12071;50.850;4.446;2023-02-01T08:23:38;5.70;99.90
23783;DHT22;12071;50.850;4.446;2023-02-01T08:26:07;5.80;99.90
23783;DHT22;12071;50.850;4.446;2023-02-01T08:28:32;5.70;99.90
23783;DHT22;12071;50.850;4.446;2023-02-01T08:30:58;5.80;99.90
23783;DHT22;12071;50.850;4.446;2023-02-01T08:33:24;5.70;99.90
23783;DHT22;12071;50.850;4.446;2023-02-01T08:35:50;5.70;99.90
23783;DHT22;12071;50.850;4.446;2023-02-01T08:38:15;5.80;99.90
23783;DHT22;12071;50.850;4.446;2023-02-01T08:40:41;5.80;99.90
23783;DHT22;12071;50.850;4.446;2023-02-01T08:43:07;5.90;99.90
23783;DHT22;12071;50.850;4.446;2023-02-01T08:45:32;5.90;99.90
23783;DHT22;12071;50.850;4.446;2023-02-01T08:47:59;5.90;99.90
23783;DHT22;12071;50.850;4.446;2023-02-01T08:50:25;6.00;99.90
23783;DHT22;12071;50.850;4.446;2023-02-01T08:52:51;6.20;99.90
23783;DHT22;12071;50.850;4.446;2023-02-01T08:55:17;6.10;99.90
23783;DHT22;12071;50.850;4.446;2023-02-01T08:57:43;6.20;99.90
23783;DHT22;12071;50.850;4.446;2023-02-01T09:00:13;6.10;99.90
23783;DHT22;12071;50.850;4.446;2023-02-01T09:02:39;6.00;99.90
23783;DHT22;12071;50.850;4.446;2023-02-01T09:05:05;6.00;99.90
23783;DHT22;12071;50.850;4.446;2023-02-01T09:07:32;6.20;99.90
23783;DHT22;12071;50.850;4.446;2023-02-01T09:09:58;6.30;99.90
23783;DHT22;12071;50.850;4.446;2023-02-01T09:12:30;6.20;99.90
23783;DHT22;12071;50.850;4.446;2023-02-01T09:14:56;6.20;92.10
23783;DHT22;12071;50.850;4.446;2023-02-01T09:17:27;6.30;94.40
23783;DHT22;12071;50.850;4.446;2023-02-01T09:19:53;6.40;98.10
23783;DHT22;12071;50.850;4.446;2023-02-01T09:22:19;6.50;1.00
23783;DHT22;12071;50.850;4.446;2023-02-01T09:24:44;6.50;21.40
23783;DHT22;12071;50.850;4.446;2023-02-01T09:27:10;6.50;1.00
23783;DHT22;12071;50.850;4.446;2023-02-01T09:29:36;6.70;1.00
23783;DHT22;12071;50.850;4.446;2023-02-01T09:32:01;6.60;1.00
23783;DHT22;12071;50.850;4.446;2023-02-01T09:34:27;6.70;1.00
23783;DHT22;12071;50.850;4.446;2023-02-01T09:36:52;6.70;1.00
23783;DHT22;12071;50.850;4.446;2023-02-01T09:39:18;6.70;1.00
23783;DHT22;12071;50.850;4.446;2023-02-01T09:45:06;6.80;1.00
23783;DHT22;12071;50.850;4.446;2023-02-01T09:47:36;6.70;1.00
23783;DHT22;12071;50.850;4.446;2023-02-01T09:50:11;6.90;1.00
23783;DHT22;12071;50.850;4.446;2023-02-01T09:52:55;7.00;1.00
23783;DHT22;12071;50.850;4.446;2023-02-01T09:55:37;7.10;1.00
23783;DHT22;12071;50.850;4.446;2023-02-01T10:00:42;7.40;1.00
23783;DHT22;12071;50.850;4.446;2023-02-01T10:03:11;7.40;99.90
23783;DHT22;12071;50.850;4.446;2023-02-01T10:10:52;7.60;99.90
23783;DHT22;12071;50.850;4.446;2023-02-01T10:13:44;7.80;99.90
23783;DHT22;12071;50.850;4.446;2023-02-01T10:21:54;7.80;99.90
23783;DHT22;12071;50.850;4.446;2023-02-01T10:27:02;7.90;99.90
23783;DHT22;12071;50.850;4.446;2023-02-01T10:29:34;7.90;30.60
23783;DHT22;12071;50.850;4.446;2023-02-01T10:32:02;8.00;51.30
23783;DHT22;12071;50.850;4.446;2023-02-01T10:34:31;8.10;1.00
23783;DHT22;12071;50.850;4.446;2023-02-01T10:39:56;8.20;99.90
23783;DHT22;12071;50.850;4.446;2023-02-01T10:42:26;8.20;99.90
23783;DHT22;12071;50.850;4.446;2023-02-01T10:44:54;8.30;99.90
23783;DHT22;12071;50.850;4.446;2023-02-01T10:47:20;8.40;99.90
23783;DHT22;12071;50.850;4.446;2023-02-01T10:50:06;8.60;99.90
23783;DHT22;12071;50.850;4.446;2023-02-01T10:52:54;8.80;1.00
23783;DHT22;12071;50.850;4.446;2023-02-01T10:58:05;8.90;99.90
23783;DHT22;12071;50.850;4.446;2023-02-01T11:00:52;8.80;84.20
23783;DHT22;12071;50.850;4.446;2023-02-01T11:03:34;8.80;45.50
23783;DHT22;12071;50.850;4.446;2023-02-01T11:06:26;8.90;99.90
23783;DHT22;12071;50.850;4.446;2023-02-01T11:08:51;9.10;1.00
23783;DHT22;12071;50.850;4.446;2023-02-01T11:11:18;9.20;99.90
23783;DHT22;12071;50.850;4.446;2023-02-01T11:13:44;9.10;99.90
23783;DHT22;12071;50.850;4.446;2023-02-01T11:16:14;9.10;99.90
23783;DHT22;12071;50.850;4.446;2023-02-01T11:18:40;9.20;99.90
23783;DHT22;12071;50.850;4.446;2023-02-01T11:21:08;9.10;99.90
23783;DHT22;12071;50.850;4.446;2023-02-01T11:23:36;9.20;99.90
23783;DHT22;12071;50.850;4.446;2023-02-01T11:26:22;9.40;99.90
23783;DHT22;12071;50.850;4.446;2023-02-01T11:29:03;9.50;1.00
23783;DHT22;12071;50.850;4.446;2023-02-01T11:31:29;9.50;99.90
23783;DHT22;12071;50.850;4.446;2023-02-01T11:36:33;9.60;99.90
23783;DHT22;12071;50.850;4.446;2023-02-01T11:39:10;9.40;99.90
23783;DHT22;12071;50.850;4.446;2023-02-01T11:41:43;9.50;99.90
23783;DHT22;12071;50.850;4.446;2023-02-01T11:47:25;9.30;99.90
23783;DHT22;12071;50.850;4.446;2023-02-01T11:49:54;9.30;99.90
23783;DHT22;12071;50.850;4.446;2023-02-01T12:00:15;9.50;99.90
23783;DHT22;12071;50.850;4.446;2023-02-01T12:36:24;10.70;46.40
23783;DHT22;12071;50.850;4.446;2023-02-01T12:44:33;10.70;1.00
23783;DHT22;12071;50.850;4.446;2023-02-01T12:52:04;10.70;1.00
23783;DHT22;12071;50.850;4.446;2023-02-01T12:54:47;10.70;1.00
23783;DHT22;12071;50.850;4.446;2023-02-01T12:57:35;10.70;1.00
23783;DHT22;12071;50.850;4.446;2023-02-01T13:06:00;11.20;1.00
23783;DHT22;12071;50.850;4.446;2023-02-01T13:11:22;11.10;99.90
23783;DHT22;12071;50.850;4.446;2023-02-01T13:16:44;11.10;99.90
23783;DHT22;12071;50.850;4.446;2023-02-01T13:19:45;11.40;1.00
23783;DHT22;12071;50.850;4.446;2023-02-01T13:22:18;11.60;99.90
23783;DHT22;12071;50.850;4.446;2023-02-01T13:24:49;11.60;99.90
23783;DHT22;12071;50.850;4.446;2023-02-01T13:27:16;11.40;99.90
23783;DHT22;12071;50.850;4.446;2023-02-01T13:32:37;11.30;99.90
23783;DHT22;12071;50.850;4.446;2023-02-01T13:43:26;11.30;99.90
23783;DHT22;12071;50.850;4.446;2023-02-01T13:45:56;11.10;99.90
23783;DHT22;12071;50.850;4.446;2023-02-01T13:48:38;11.20;99.90
23783;DHT22;12071;50.850;4.446;2023-02-01T13:51:05;11.20;99.90
23783;DHT22;12071;50.850;4.446;2023-02-01T13:53:34;11.50;99.90
23783;DHT22;12071;50.850;4.446;2023-02-01T13:56:14;11.20;99.90
23783;DHT22;12071;50.850;4.446;2023-02-01T13:58:42;11.40;99.90
23783;DHT22;12071;50.850;4.446;2023-02-01T14:01:35;11.60;99.90
23783;DHT22;12071;50.850;4.446;2023-02-01T14:04:04;11.70;99.90
23783;DHT22;12071;50.850;4.446;2023-02-01T14:11:41;11.20;99.90
23783;DHT22;12071;50.850;4.446;2023-02-01T14:19:22;10.70;99.90
23783;DHT22;12071;50.850;4.446;2023-02-01T14:21:54;10.70;99.90
23783;DHT22;12071;50.850;4.446;2023-02-01T14:24:34;10.80;99.90
23783;DHT22;12071;50.850;4.446;2023-02-01T14:27:24;10.60;99.90
23783;DHT22;12071;50.850;4.446;2023-02-01T14:29:57;10.60;99.90
23783;DHT22;12071;50.850;4.446;2023-02-01T14:32:40;10.60;99.90
23783;DHT22;12071;50.850;4.446;2023-02-01T14:35:16;10.70;99.90
23783;DHT22;12071;50.850;4.446;2023-02-01T14:37:43;10.80;99.90
23783;DHT22;12071;50.850;4.446;2023-02-01T14:55:45;10.30;99.90
23783;DHT22;12071;50.850;4.446;2023-02-01T15:00:52;10.10;99.90
23783;DHT22;12071;50.850;4.446;2023-02-01T15:06:31;10.30;1.00
23783;DHT22;12071;50.850;4.446;2023-02-01T15:09:02;10.30;1.00
23783;DHT22;12071;50.850;4.446;2023-02-01T15:11:28;10.30;99.90
23783;DHT22;12071;50.850;4.446;2023-02-01T15:13:54;10.40;1.00
23783;DHT22;12071;50.850;4.446;2023-02-01T15:16:23;10.40;1.00
23783;DHT22;12071;50.850;4.446;2023-02-01T15:18:49;10.40;1.00
23783;DHT22;12071;50.850;4.446;2023-02-01T15:21:20;10.30;1.00
23783;DHT22;12071;50.850;4.446;2023-02-01T15:23:47;10.10;1.00
23783;DHT22;12071;50.850;4.446;2023-02-01T15:26:31;10.00;1.00
23783;DHT22;12071;50.850;4.446;2023-02-01T15:29:00;10.10;1.00
23783;DHT22;12071;50.850;4.446;2023-02-01T15:33:58;10.00;1.00
23783;DHT22;12071;50.850;4.446;2023-02-01T15:36:24;10.00;1.00
23783;DHT22;12071;50.850;4.446;2023-02-01T15:39:18;10.10;1.90
23783;DHT22;12071;50.850;4.446;2023-02-01T15:41:57;9.90;28.00
23783;DHT22;12071;50.850;4.446;2023-02-01T15:44:31;9.90;55.80
23783;DHT22;12071;50.850;4.446;2023-02-01T15:46:58;9.90;99.90
23783;DHT22;12071;50.850;4.446;2023-02-01T15:49:35;9.90;99.90
23783;DHT22;12071;50.850;4.446;2023-02-01T15:52:02;10.00;99.90
23783;DHT22;12071;50.850;4.446;2023-02-01T15:54:32;10.00;99.90
23783;DHT22;12071;50.850;4.446;2023-02-01T15:57:02;9.90;99.90
23783;DHT22;12071;50.850;4.446;2023-02-01T15:59:32;9.90;99.90
23783;DHT22;12071;50.850;4.446;2023-02-01T16:02:01;9.90;99.90
23783;DHT22;12071;50.850;4.446;2023-02-01T16:04:27;9.90;99.90
23783;DHT22;12071;50.850;4.446;2023-02-01T16:07:01;9.90;99.90
23783;DHT22;12071;50.850;4.446;2023-02-01T16:09:40;9.80;99.90
23783;DHT22;12071;50.850;4.446;2023-02-01T16:15:01;9.80;99.90
23783;DHT22;12071;50.850;4.446;2023-02-01T16:17:27;9.80;99.90
23783;DHT22;12071;50.850;4.446;2023-02-01T16:19:53;9.80;99.90
23783;DHT22;12071;50.850;4.446;2023-02-01T16:22:18;9.70;1.00
23783;DHT22;12071;50.850;4.446;2023-02-01T16:24:44;9.60;1.00
23783;DHT22;12071;50.850;4.446;2023-02-01T16:27:10;9.70;1.00
23783;DHT22;12071;50.850;4.446;2023-02-01T16:29:35;9.70;1.00
23783;DHT22;12071;50.850;4.446;2023-02-01T16:32:01;9.80;1.00
23783;DHT22;12071;50.850;4.446;2023-02-01T16:34:27;9.70;1.00
23783;DHT22;12071;50.850;4.446;2023-02-01T16:36:52;9.70;1.00
23783;DHT22;12071;50.850;4.446;2023-02-01T16:39:22;9.70;9.00
23783;DHT22;12071;50.850;4.446;2023-02-01T16:41:49;9.60;68.40
23783;DHT22;12071;50.850;4.446;2023-02-01T16:44:15;9.60;99.90
23783;DHT22;12071;50.850;4.446;2023-02-01T16:46:42;9.50;99.90
23783;DHT22;12071;50.850;4.446;2023-02-01T16:49:28;9.70;99.90
23783;DHT22;12071;50.850;4.446;2023-02-01T16:51:57;9.90;99.90
23783;DHT22;12071;50.850;4.446;2023-02-01T16:54:23;9.70;99.90
23783;DHT22;12071;50.850;4.446;2023-02-01T16:56:50;9.50;99.90
23783;DHT22;12071;50.850;4.446;2023-02-01T16:59:16;9.60;99.90
23783;DHT22;12071;50.850;4.446;2023-02-01T17:01:41;9.60;99.90
23783;DHT22;12071;50.850;4.446;2023-02-01T17:04:09;9.70;99.90
23783;DHT22;12071;50.850;4.446;2023-02-01T17:06:36;9.60;1.00
23783;DHT22;12071;50.850;4.446;2023-02-01T17:09:02;9.70;1.00
23783;DHT22;12071;50.850;4.446;2023-02-01T17:11:29;9.70;99.90
23783;DHT22;12071;50.850;4.446;2023-02-01T17:14:01;9.60;1.00
23783;DHT22;12071;50.850;4.446;2023-02-01T17:16:31;9.50;1.00
23783;DHT22;12071;50.850;4.446;2023-02-01T17:18:59;9.40;99.90
23783;DHT22;12071;50.850;4.446;2023-02-01T17:21:27;9.40;99.90
23783;DHT22;12071;50.850;4.446;2023-02-01T17:23:54;9.50;99.90
23783;DHT22;12071;50.850;4.446;2023-02-01T17:26:20;9.60;99.90
23783;DHT22;12071;50.850;4.446;2023-02-01T17:28:46;9.60;99.90
23783;DHT22;12071;50.850;4.446;2023-02-01T17:31:13;9.70;99.90
23783;DHT22;12071;50.850;4.446;2023-02-01T17:33:40;9.60;99.90
23783;DHT22;12071;50.850;4.446;2023-02-01T17:36:09;9.40;1.00
23783;DHT22;12071;50.850;4.446;2023-02-01T17:38:35;9.40;99.90
23783;DHT22;12071;50.850;4.446;2023-02-01T17:41:01;9.30;1.00
23783;DHT22;12071;50.850;4.446;2023-02-01T17:43:26;9.40;99.90
23783;DHT22;12071;50.850;4.446;2023-02-01T17:46:15;9.50;1.00
23783;DHT22;12071;50.850;4.446;2023-02-01T17:48:41;9.40;99.90
23783;DHT22;12071;50.850;4.446;2023-02-01T17:51:18;9.30;87.50
23783;DHT22;12071;50.850;4.446;2023-02-01T17:53:44;9.30;99.90
23783;DHT22;12071;50.850;4.446;2023-02-01T17:56:18;9.30;99.90
23783;DHT22;12071;50.850;4.446;2023-02-01T17:58:45;9.30;1.00
23783;DHT22;12071;50.850;4.446;2023-02-01T18:01:12;9.30;1.00
23783;DHT22;12071;50.850;4.446;2023-02-01T18:03:39;9.20;1.00
23783;DHT22;12071;50.850;4.446;2023-02-01T18:06:09;9.10;1.00
23783;DHT22;12071;50.850;4.446;2023-02-01T18:08:35;9.20;7.60
23783;DHT22;12071;50.850;4.446;2023-02-01T18:11:01;9.10;1.00
23783;DHT22;12071;50.850;4.446;2023-02-01T18:13:28;9.20;26.60
23783;DHT22;12071;50.850;4.446;2023-02-01T18:15:56;9.10;25.50
23783;DHT22;12071;50.850;4.446;2023-02-01T18:18:24;9.10;99.90
23783;DHT22;12071;50.850;4.446;2023-02-01T18:20:49;9.10;99.90
23783;DHT22;12071;50.850;4.446;2023-02-01T18:23:20;9.10;97.50
23783;DHT22;12071;50.850;4.446;2023-02-01T18:25:46;9.10;77.50
23783;DHT22;12071;50.850;4.446;2023-02-01T18:28:16;9.10;99.90
23783;DHT22;12071;50.850;4.446;2023-02-01T18:30:44;9.20;99.90
23783;DHT22;12071;50.850;4.446;2023-02-01T18:33:12;9.20;99.90
23783;DHT22;12071;50.850;4.446;2023-02-01T18:35:38;9.20;99.90
23783;DHT22;12071;50.850;4.446;2023-02-01T18:38:04;9.10;99.90
23783;DHT22;12071;50.850;4.446;2023-02-01T18:40:32;9.20;99.90
23783;DHT22;12071;50.850;4.446;2023-02-01T18:42:59;9.20;99.90
23783;DHT22;12071;50.850;4.446;2023-02-01T18:45:35;9.30;99.90
23783;DHT22;12071;50.850;4.446;2023-02-01T18:48:02;9.40;90.20
23783;DHT22;12071;50.850;4.446;2023-02-01T18:50:29;9.50;1.00
23783;DHT22;12071;50.850;4.446;2023-02-01T18:52:56;9.30;20.00
23783;DHT22;12071;50.850;4.446;2023-02-01T18:55:23;9.40;38.80
23783;DHT22;12071;50.850;4.446;2023-02-01T18:57:51;9.30;99.90
23783;DHT22;12071;50.850;4.446;2023-02-01T19:00:18;9.30;99.90
23783;DHT22;12071;50.850;4.446;2023-02-01T19:02:44;9.20;99.90
23783;DHT22;12071;50.850;4.446;2023-02-01T19:05:11;9.30;99.90